createdAt,value
2019-02-24T00:01:37.369Z,2.10
2019-02-24T00:04:06.168Z,2.10
2019-02-24T00:06:35.257Z,2.10
2019-02-24T00:09:04.573Z,2.10
2019-02-24T00:11:33.622Z,2.00
2019-02-24T00:14:03.221Z,2.00
2019-02-24T00:16:32.313Z,2.00
2019-02-24T00:19:03.741Z,1.90
2019-02-24T00:21:32.544Z,1.90
2019-02-24T00:24:01.368Z,1.90
2019-02-24T00:26:30.811Z,1.90
2019-02-24T00:29:00.288Z,1.80
2019-02-24T00:31:29.504Z,1.80
2019-02-24T00:33:58.547Z,1.80
2019-02-24T00:36:27.474Z,1.80
2019-02-24T00:38:57.109Z,1.80
2019-02-24T00:41:26.396Z,1.80
2019-02-24T00:43:55.896Z,1.70
2019-02-24T00:46:25.258Z,1.70
2019-02-24T00:48:54.120Z,1.70
2019-02-24T00:51:23.469Z,1.70
2019-02-24T00:53:52.788Z,1.70
2019-02-24T00:56:22.012Z,1.70
2019-02-24T00:58:51.330Z,1.70
2019-02-24T01:01:20.370Z,1.70
2019-02-24T01:03:49.404Z,1.70
2019-02-24T01:06:18.541Z,1.60
2019-02-24T01:08:47.372Z,1.60
2019-02-24T01:11:16.385Z,1.60
2019-02-24T01:13:45.678Z,1.50
2019-02-24T01:16:14.449Z,1.40
2019-02-24T01:18:43.500Z,1.40
2019-02-24T01:21:12.470Z,1.30
2019-02-24T01:23:41.528Z,1.30
2019-02-24T01:26:10.889Z,1.20
2019-02-24T01:28:40.194Z,1.20
2019-02-24T01:31:09.461Z,1.20
2019-02-24T01:33:38.237Z,1.10
2019-02-24T01:36:07.903Z,1.10
2019-02-24T01:38:36.960Z,1.10
2019-02-24T01:41:06.245Z,1.10
2019-02-24T01:43:36.634Z,1.00
2019-02-24T01:46:08.049Z,1.00
2019-02-24T01:48:38.183Z,1.00
2019-02-24T01:51:07.023Z,1.00
2019-02-24T01:53:36.045Z,1.00
2019-02-24T01:56:04.875Z,1.00
2019-02-24T01:58:35.398Z,1.00
2019-02-24T02:01:04.461Z,0.90
2019-02-24T02:03:33.204Z,0.90
2019-02-24T02:06:02.872Z,0.90
2019-02-24T02:08:32.161Z,0.90
2019-02-24T02:11:01.212Z,0.90
2019-02-24T02:13:30.216Z,0.90
2019-02-24T02:15:59.531Z,0.90
2019-02-24T02:18:29.302Z,0.80
2019-02-24T02:20:59.203Z,0.80
2019-02-24T02:23:27.968Z,0.70
2019-02-24T02:25:57.063Z,0.70
2019-02-24T02:28:26.082Z,0.70
2019-02-24T02:30:55.399Z,0.60
2019-02-24T02:33:24.555Z,0.60
2019-02-24T02:35:53.918Z,0.60
2019-02-24T02:38:22.653Z,0.60
2019-02-24T02:40:51.794Z,0.60
2019-02-24T02:43:21.136Z,0.50
2019-02-24T02:45:49.966Z,0.50
2019-02-24T02:48:18.941Z,0.50
2019-02-24T02:50:47.720Z,0.50
2019-02-24T02:53:16.730Z,0.50
2019-02-24T02:55:45.767Z,0.50
2019-02-24T02:58:15.042Z,0.50
2019-02-24T03:00:44.329Z,0.40
2019-02-24T03:03:13.305Z,0.40
2019-02-24T03:05:50.269Z,0.40
2019-02-24T03:08:19.266Z,0.40
2019-02-24T03:10:48.285Z,0.40
2019-02-24T03:13:17.371Z,0.40
2019-02-24T03:15:46.348Z,0.40
2019-02-24T03:18:15.660Z,0.40
2019-02-24T03:20:44.600Z,0.40
2019-02-24T03:23:13.340Z,0.30
2019-02-24T03:25:42.369Z,0.30
2019-02-24T03:28:11.501Z,0.30
2019-02-24T03:30:40.578Z,0.30
2019-02-24T03:33:09.630Z,0.30
2019-02-24T03:35:38.830Z,0.20
2019-02-24T03:38:08.088Z,0.30
2019-02-24T03:40:36.826Z,0.20
2019-02-24T03:43:05.838Z,0.20
2019-02-24T03:45:34.859Z,0.20
2019-02-24T03:48:03.850Z,0.20
2019-02-24T03:50:32.730Z,0.20
2019-02-24T03:53:02.030Z,0.20
2019-02-24T03:55:31.383Z,0.20
2019-02-24T03:58:00.772Z,0.20
2019-02-24T04:00:30.187Z,0.10
2019-02-24T04:02:59.706Z,0.20
2019-02-24T04:05:28.931Z,0.10
2019-02-24T04:07:57.979Z,0.10
2019-02-24T04:10:26.723Z,0.10
2019-02-24T04:12:55.705Z,0.10
2019-02-24T04:15:24.829Z,0.00
2019-02-24T04:17:53.945Z,0.00
2019-02-24T04:20:22.773Z,0.00
2019-02-24T04:22:52.603Z,0.00
2019-02-24T04:25:21.984Z,0.00
2019-02-24T04:27:50.753Z,0.00
2019-02-24T04:30:20.041Z,0.00
2019-02-24T04:32:49.389Z,0.00
2019-02-24T04:35:18.400Z,0.00
2019-02-24T04:37:47.699Z,-0.10
2019-02-24T04:40:16.729Z,-0.10
2019-02-24T04:42:46.535Z,-0.10
2019-02-24T04:45:15.613Z,-0.10
2019-02-24T04:47:45.250Z,-0.10
2019-02-24T04:50:14.561Z,-0.10
2019-02-24T04:52:44.620Z,-0.10
2019-02-24T04:55:13.466Z,-0.10
2019-02-24T04:57:43.247Z,-0.10
2019-02-24T05:00:12.589Z,-0.10
2019-02-24T05:02:42.321Z,-0.20
2019-02-24T05:05:12.206Z,-0.10
2019-02-24T05:07:41.249Z,-0.10
2019-02-24T05:10:10.777Z,-0.10
2019-02-24T05:12:39.770Z,0.00
2019-02-24T05:15:09.659Z,0.00
2019-02-24T05:17:39.046Z,0.00
2019-02-24T05:20:07.977Z,0.00
2019-02-24T05:22:37.369Z,0.00
2019-02-24T05:25:06.544Z,0.00
2019-02-24T05:27:35.838Z,0.00
2019-02-24T05:30:05.272Z,0.00
2019-02-24T05:32:34.021Z,0.00
2019-02-24T05:35:03.361Z,-0.10
2019-02-24T05:37:32.577Z,-0.10
2019-02-24T05:40:02.646Z,-0.20
2019-02-24T05:42:31.823Z,-0.20
2019-02-24T05:45:00.812Z,-0.20
2019-02-24T05:47:30.118Z,-0.20
2019-02-24T05:49:59.464Z,-0.20
2019-02-24T05:52:28.725Z,-0.20
2019-02-24T05:54:58.001Z,-0.20
2019-02-24T05:57:27.241Z,-0.20
2019-02-24T05:59:56.534Z,-0.20
2019-02-24T06:02:26.064Z,-0.20
2019-02-24T06:04:55.857Z,-0.20
2019-02-24T06:07:24.866Z,-0.30
2019-02-24T06:09:53.972Z,-0.30
2019-02-24T06:12:23.011Z,-0.30
2019-02-24T06:14:52.548Z,-0.30
2019-02-24T06:17:21.575Z,-0.30
2019-02-24T06:19:50.618Z,-0.30
2019-02-24T06:22:20.132Z,-0.30
2019-02-24T06:24:49.229Z,-0.30
2019-02-24T06:27:18.249Z,-0.40
2019-02-24T06:29:47.758Z,-0.40
2019-02-24T06:32:16.545Z,-0.40
2019-02-24T06:34:46.363Z,-0.40
2019-02-24T06:37:16.050Z,-0.40
2019-02-24T06:39:44.869Z,-0.30
2019-02-24T06:42:14.169Z,-0.30
2019-02-24T06:44:43.577Z,-0.30
2019-02-24T06:47:13.490Z,-0.30
2019-02-24T06:49:42.532Z,-0.30
2019-02-24T06:52:11.586Z,-0.20
2019-02-24T06:54:40.929Z,-0.20
2019-02-24T06:57:09.940Z,-0.20
2019-02-24T06:59:38.912Z,-0.10
2019-02-24T07:02:07.683Z,-0.10
2019-02-24T07:04:37.531Z,-0.10
2019-02-24T07:07:06.562Z,-0.10
2019-02-24T07:09:35.655Z,0.00
2019-02-24T07:12:04.734Z,0.00
2019-02-24T07:14:34.062Z,0.10
2019-02-24T07:17:03.212Z,0.10
2019-02-24T07:19:32.511Z,0.20
2019-02-24T07:22:01.333Z,0.20
2019-02-24T07:24:31.035Z,0.20
2019-02-24T07:26:59.854Z,0.30
2019-02-24T07:29:28.838Z,0.30
2019-02-24T07:31:58.122Z,0.40
2019-02-24T07:34:27.679Z,0.40
2019-02-24T07:36:57.372Z,0.50
2019-02-24T07:39:26.485Z,0.50
2019-02-24T07:41:55.317Z,0.60
2019-02-24T07:44:24.098Z,0.60
2019-02-24T07:46:53.123Z,0.70
2019-02-24T07:49:22.433Z,0.70
2019-02-24T07:51:51.955Z,0.80
2019-02-24T07:54:20.965Z,0.80
2019-02-24T07:56:50.325Z,1.00
2019-02-24T07:59:19.076Z,1.00
2019-02-24T08:01:48.162Z,1.00
2019-02-24T08:04:17.217Z,1.10
2019-02-24T08:06:46.109Z,1.20
2019-02-24T08:09:15.581Z,1.30
2019-02-24T08:11:44.853Z,1.30
2019-02-24T08:14:13.905Z,1.40
2019-02-24T08:16:42.986Z,1.50
2019-02-24T08:19:11.732Z,1.60
2019-02-24T08:21:40.532Z,1.70
2019-02-24T08:24:09.790Z,1.80
2019-02-24T08:26:38.805Z,1.90
2019-02-24T08:29:07.846Z,1.90
2019-02-24T08:31:37.320Z,2.00
2019-02-24T08:34:06.500Z,2.10
2019-02-24T08:36:35.509Z,2.10
2019-02-24T08:39:04.596Z,2.20
2019-02-24T08:41:33.980Z,2.30
2019-02-24T08:44:02.878Z,2.30
2019-02-24T08:46:32.157Z,2.40
2019-02-24T08:49:01.306Z,2.50
2019-02-24T08:51:30.689Z,2.50
2019-02-24T08:53:59.723Z,2.60
2019-02-24T08:56:28.797Z,2.70
2019-02-24T08:58:57.806Z,2.70
2019-02-24T09:01:27.092Z,2.80
2019-02-24T09:03:56.598Z,2.90
2019-02-24T09:06:25.946Z,3.00
2019-02-24T09:08:54.978Z,3.10
2019-02-24T09:11:24.245Z,3.30
2019-02-24T09:13:53.377Z,3.40
2019-02-24T09:16:22.657Z,3.50
2019-02-24T09:18:51.652Z,3.60
2019-02-24T09:21:20.683Z,3.80
2019-02-24T09:23:49.768Z,3.90
2019-02-24T09:26:19.390Z,4.00
2019-02-24T09:28:48.562Z,4.10
2019-02-24T09:31:17.676Z,4.10
2019-02-24T09:33:46.592Z,4.20
2019-02-24T09:36:15.431Z,4.20
2019-02-24T09:38:44.703Z,4.30
2019-02-24T09:41:13.746Z,4.40
2019-02-24T09:43:42.945Z,4.50
2019-02-24T09:46:12.004Z,4.60
2019-02-24T09:48:40.733Z,4.70
2019-02-24T09:51:09.825Z,4.80
2019-02-24T09:53:38.858Z,4.90
2019-02-24T09:56:08.161Z,4.90
2019-02-24T09:58:37.285Z,5.00
2019-02-24T10:01:10.550Z,5.10
2019-02-24T10:03:37.857Z,5.10
2019-02-24T10:06:06.904Z,5.20
2019-02-24T10:08:35.889Z,5.20
2019-02-24T10:11:04.983Z,5.30
2019-02-24T10:13:34.313Z,5.40
2019-02-24T10:16:03.338Z,5.50
2019-02-24T10:18:32.975Z,5.50
2019-02-24T10:21:02.506Z,5.60
2019-02-24T10:23:32.325Z,5.70
2019-02-24T10:26:01.123Z,5.80
2019-02-24T10:28:30.160Z,6.00
2019-02-24T10:30:58.946Z,6.00
2019-02-24T10:33:28.098Z,6.10
2019-02-24T10:35:57.120Z,6.10
2019-02-24T10:38:26.169Z,6.30
2019-02-24T10:40:55.310Z,6.40
2019-02-24T10:43:24.052Z,6.50
2019-02-24T10:45:53.210Z,6.50
2019-02-24T10:48:22.522Z,6.60
2019-02-24T10:50:52.096Z,6.60
2019-02-24T10:53:21.449Z,6.80
2019-02-24T10:55:50.227Z,6.90
2019-02-24T10:58:21.228Z,7.00
2019-02-24T11:00:50.653Z,7.00
2019-02-24T11:03:19.433Z,7.10
2019-02-24T11:05:48.760Z,7.20
2019-02-24T11:08:17.566Z,7.30
2019-02-24T11:10:46.591Z,7.30
2019-02-24T11:13:15.425Z,7.40
2019-02-24T11:15:44.451Z,7.40
2019-02-24T11:18:13.739Z,7.40
2019-02-24T11:20:42.833Z,7.50
2019-02-24T11:23:11.881Z,7.50
2019-02-24T11:25:40.637Z,7.60
2019-02-24T11:28:09.457Z,7.70
2019-02-24T11:30:38.393Z,7.70
2019-02-24T11:33:07.182Z,7.80
2019-02-24T11:35:36.195Z,7.90
2019-02-24T11:38:05.384Z,7.90
2019-02-24T11:40:34.616Z,8.00
2019-02-24T11:43:03.474Z,8.10
2019-02-24T11:45:32.262Z,8.10
2019-02-24T11:48:01.795Z,8.20
2019-02-24T11:50:31.161Z,8.20
2019-02-24T11:53:00.177Z,8.30
2019-02-24T11:55:29.174Z,8.40
2019-02-24T11:57:58.761Z,8.40
2019-02-24T12:00:27.876Z,8.50
2019-02-24T12:02:57.424Z,8.60
2019-02-24T12:05:26.491Z,8.60
2019-02-24T12:07:55.765Z,8.60
2019-02-24T12:10:25.246Z,8.70
2019-02-24T12:12:54.884Z,8.70
2019-02-24T12:15:24.007Z,8.80
2019-02-24T12:17:53.586Z,8.80
2019-02-24T12:20:22.620Z,8.80
2019-02-24T12:22:51.914Z,8.90
2019-02-24T12:25:20.942Z,9.00
2019-02-24T12:27:50.297Z,9.00
2019-02-24T12:30:19.426Z,9.10
2019-02-24T12:32:48.526Z,9.10
2019-02-24T12:35:17.544Z,9.20
2019-02-24T12:37:46.571Z,9.20
2019-02-24T12:40:15.655Z,9.30
2019-02-24T12:42:45.272Z,9.30
2019-02-24T12:45:14.373Z,9.30
2019-02-24T12:47:43.445Z,9.40
2019-02-24T12:50:12.576Z,9.40
2019-02-24T12:52:42.285Z,9.50
2019-02-24T12:55:11.778Z,9.60
2019-02-24T12:57:40.939Z,9.60
2019-02-24T13:00:13.926Z,9.60
2019-02-24T13:02:43.317Z,9.70
2019-02-24T13:05:12.213Z,9.80
2019-02-24T13:07:41.067Z,9.80
2019-02-24T13:10:11.483Z,9.80
2019-02-24T13:12:40.580Z,9.80
2019-02-24T13:15:10.144Z,9.80
2019-02-24T13:17:38.986Z,9.90
2019-02-24T13:20:10.010Z,10.00
2019-02-24T13:22:39.732Z,10.00
2019-02-24T13:25:09.906Z,10.00
2019-02-24T13:27:39.413Z,10.10
2019-02-24T13:30:08.721Z,10.10
2019-02-24T13:32:37.877Z,10.10
2019-02-24T13:35:09.505Z,10.10
2019-02-24T13:37:38.621Z,10.10
2019-02-24T13:40:08.146Z,10.10
2019-02-24T13:42:37.509Z,10.20
2019-02-24T13:45:08.432Z,10.20
2019-02-24T13:47:37.204Z,10.30
2019-02-24T13:50:07.635Z,10.30
2019-02-24T13:52:36.421Z,10.30
2019-02-24T13:55:07.842Z,10.30
2019-02-24T13:57:36.785Z,10.40
2019-02-24T14:00:07.257Z,10.40
2019-02-24T14:02:36.303Z,10.40
2019-02-24T14:05:06.891Z,10.40
2019-02-24T14:07:36.693Z,10.50
2019-02-24T14:10:06.319Z,10.50
2019-02-24T14:12:35.084Z,10.50
2019-02-24T14:15:04.362Z,10.50
2019-02-24T14:17:33.212Z,10.50
2019-02-24T14:20:02.027Z,10.60
2019-02-24T14:22:31.405Z,10.50
2019-02-24T14:25:01.382Z,10.60
2019-02-24T14:27:30.721Z,10.60
2019-02-24T14:29:59.777Z,10.60
2019-02-24T14:32:33.028Z,10.60
2019-02-24T14:34:59.638Z,10.60
2019-02-24T14:37:28.481Z,10.50
2019-02-24T14:39:57.526Z,10.50
2019-02-24T14:42:26.311Z,10.50
2019-02-24T14:44:55.610Z,10.50
2019-02-24T14:47:24.952Z,10.50
2019-02-24T14:49:54.028Z,10.50
2019-02-24T14:52:23.074Z,10.50
2019-02-24T14:54:52.446Z,10.50
2019-02-24T14:57:21.555Z,10.50
2019-02-24T14:59:50.643Z,10.40
2019-02-24T15:02:19.833Z,10.40
2019-02-24T15:04:49.444Z,10.40
2019-02-24T15:07:18.661Z,10.30
2019-02-24T15:09:47.517Z,10.30
2019-02-24T15:12:16.336Z,10.30
2019-02-24T15:14:45.369Z,10.30
2019-02-24T15:17:14.412Z,10.20
2019-02-24T15:19:43.182Z,10.20
2019-02-24T15:22:12.960Z,10.20
2019-02-24T15:24:42.010Z,10.20
2019-02-24T15:27:11.802Z,10.20
2019-02-24T15:29:40.917Z,10.10
2019-02-24T15:32:10.437Z,10.10
2019-02-24T15:34:39.732Z,10.00
2019-02-24T15:37:09.258Z,10.00
2019-02-24T15:39:38.614Z,10.00
2019-02-24T15:42:08.422Z,10.00
2019-02-24T15:44:37.329Z,9.90
2019-02-24T15:47:07.259Z,9.90
2019-02-24T15:49:36.078Z,9.90
2019-02-24T15:52:09.887Z,9.80
2019-02-24T15:54:36.725Z,9.80
2019-02-24T15:57:05.855Z,9.90
2019-02-24T15:59:38.371Z,9.80
2019-02-24T16:02:07.590Z,9.80
2019-02-24T16:04:36.798Z,9.80
2019-02-24T16:07:05.741Z,9.80
2019-02-24T16:09:35.168Z,9.80
2019-02-24T16:12:04.068Z,9.70
2019-02-24T16:14:41.322Z,9.60
2019-02-24T16:17:10.560Z,9.40
2019-02-24T16:19:41.017Z,9.30
2019-02-24T16:22:10.969Z,9.20
2019-02-24T16:24:40.274Z,9.10
2019-02-24T16:27:09.065Z,9.00
2019-02-24T16:29:38.450Z,8.90
2019-02-24T16:32:07.547Z,8.80
2019-02-24T16:34:36.393Z,8.70
2019-02-24T16:37:05.617Z,8.60
2019-02-24T16:39:35.241Z,8.50
2019-02-24T16:42:04.356Z,8.40
2019-02-24T16:44:34.038Z,8.30
2019-02-24T16:47:02.918Z,8.10
2019-02-24T16:49:32.030Z,8.00
2019-02-24T16:52:01.349Z,7.90
2019-02-24T16:54:30.247Z,7.80
2019-02-24T16:57:05.091Z,7.70
2019-02-24T16:59:30.373Z,7.60
2019-02-24T17:01:59.501Z,7.50
2019-02-24T17:04:28.685Z,7.40
2019-02-24T17:06:58.422Z,7.30
2019-02-24T17:09:27.802Z,7.20
2019-02-24T17:11:57.148Z,7.20
2019-02-24T17:14:25.914Z,7.10
2019-02-24T17:17:01.421Z,7.00
2019-02-24T17:19:25.840Z,7.00
2019-02-24T17:21:54.992Z,6.90
2019-02-24T17:24:24.380Z,6.80
2019-02-24T17:26:53.464Z,6.70
2019-02-24T17:29:22.807Z,6.60
2019-02-24T17:31:51.962Z,6.50
2019-02-24T17:34:21.300Z,6.50
2019-02-24T17:36:50.723Z,6.40
2019-02-24T17:39:19.750Z,6.30
2019-02-24T17:41:48.857Z,6.30
2019-02-24T17:44:17.948Z,6.20
2019-02-24T17:46:47.089Z,6.10
2019-02-24T17:49:16.164Z,6.10
2019-02-24T17:51:45.243Z,6.00
2019-02-24T17:54:14.538Z,5.90
2019-02-24T17:56:43.894Z,5.80
2019-02-24T17:59:13.608Z,5.80
2019-02-24T18:01:42.962Z,5.80
2019-02-24T18:04:11.817Z,5.70
2019-02-24T18:06:40.916Z,5.70
2019-02-24T18:09:10.197Z,5.60
2019-02-24T18:11:39.898Z,5.60
2019-02-24T18:14:08.823Z,5.50
2019-02-24T18:16:38.166Z,5.50
2019-02-24T18:19:07.210Z,5.50
2019-02-24T18:21:36.251Z,5.50
2019-02-24T18:24:05.226Z,5.50
2019-02-24T18:26:34.540Z,5.40
2019-02-24T18:29:03.623Z,5.40
2019-02-24T18:31:32.569Z,5.40
2019-02-24T18:34:01.713Z,5.30
2019-02-24T18:36:30.758Z,5.30
2019-02-24T18:39:00.100Z,5.30
2019-02-24T18:41:29.448Z,5.20
2019-02-24T18:43:58.562Z,5.20
2019-02-24T18:46:27.640Z,5.20
2019-02-24T18:48:57.334Z,5.20
2019-02-24T18:51:26.966Z,5.20
2019-02-24T18:53:55.727Z,5.10
2019-02-24T18:56:24.485Z,5.10
2019-02-24T18:58:53.333Z,5.10
2019-02-24T19:01:22.502Z,5.00
2019-02-24T19:03:57.355Z,5.00
2019-02-24T19:06:21.772Z,4.90
2019-02-24T19:08:51.247Z,5.00
2019-02-24T19:11:20.650Z,4.90
2019-02-24T19:13:49.763Z,4.90
2019-02-24T19:16:18.873Z,4.80
2019-02-24T19:18:48.422Z,4.80
2019-02-24T19:21:17.587Z,4.80
2019-02-24T19:23:46.627Z,4.70
2019-02-24T19:26:15.728Z,4.70
2019-02-24T19:28:44.545Z,4.70
2019-02-24T19:31:31.398Z,4.60
2019-02-24T19:34:06.634Z,4.60
2019-02-24T19:36:31.734Z,4.60
2019-02-24T19:39:00.498Z,4.60
2019-02-24T19:41:29.564Z,4.60
2019-02-24T19:43:58.604Z,4.60
2019-02-24T19:46:27.953Z,4.50
2019-02-24T19:48:56.846Z,4.50
2019-02-24T19:51:25.662Z,4.50
2019-02-24T19:53:54.942Z,4.50
2019-02-24T19:56:24.015Z,4.50
2019-02-24T19:58:53.427Z,4.40
2019-02-24T20:01:22.327Z,4.40
2019-02-24T20:03:51.479Z,4.40
2019-02-24T20:06:20.531Z,4.30
2019-02-24T20:08:53.419Z,4.30
2019-02-24T20:11:22.222Z,4.30
2019-02-24T20:13:51.335Z,4.30
2019-02-24T20:16:20.482Z,4.20
2019-02-24T20:18:49.952Z,4.10
2019-02-24T20:21:19.303Z,4.10
2019-02-24T20:23:48.363Z,4.10
2019-02-24T20:26:17.685Z,4.10
2019-02-24T20:28:47.274Z,4.10
2019-02-24T20:31:16.357Z,4.00
2019-02-24T20:33:45.521Z,4.10
2019-02-24T20:36:14.571Z,4.00
2019-02-24T20:38:43.342Z,3.90
2019-02-24T20:41:12.445Z,3.90
2019-02-24T20:43:41.490Z,3.90
2019-02-24T20:46:11.050Z,3.90
2019-02-24T20:48:40.273Z,3.80
2019-02-24T20:51:09.308Z,3.80
2019-02-24T20:53:38.447Z,3.80
2019-02-24T20:56:08.303Z,3.80
2019-02-24T20:58:38.051Z,3.80
2019-02-24T21:01:11.224Z,3.80
2019-02-24T21:03:40.038Z,3.80
2019-02-24T21:06:09.417Z,3.70
2019-02-24T21:08:38.487Z,3.70
2019-02-24T21:11:07.619Z,3.70
2019-02-24T21:13:36.640Z,3.70
2019-02-24T21:16:06.353Z,3.60
2019-02-24T21:18:35.436Z,3.60
2019-02-24T21:21:04.194Z,3.60
2019-02-24T21:23:33.781Z,3.50
2019-02-24T21:26:02.924Z,3.50
2019-02-24T21:28:32.015Z,3.50
2019-02-24T21:31:01.185Z,3.50
2019-02-24T21:33:29.963Z,3.50
2019-02-24T21:35:59.196Z,3.40
2019-02-24T21:38:28.281Z,3.40
2019-02-24T21:40:57.333Z,3.40
2019-02-24T21:43:26.475Z,3.30
2019-02-24T21:45:56.297Z,3.30
2019-02-24T21:48:25.375Z,3.30
2019-02-24T21:50:54.886Z,3.30
2019-02-24T21:53:23.933Z,3.20
2019-02-24T21:55:53.458Z,3.20
2019-02-24T21:58:22.802Z,3.10
2019-02-24T22:00:51.786Z,3.10
2019-02-24T22:03:20.583Z,3.00
2019-02-24T22:05:49.907Z,3.00
2019-02-24T22:08:19.047Z,3.00
2019-02-24T22:10:48.428Z,2.90
2019-02-24T22:13:17.803Z,2.90
2019-02-24T22:15:46.850Z,2.90
2019-02-24T22:18:15.915Z,3.00
2019-02-24T22:20:45.573Z,2.90
2019-02-24T22:23:15.247Z,2.90
2019-02-24T22:25:44.530Z,2.90
2019-02-24T22:28:13.400Z,2.80
2019-02-24T22:30:42.145Z,2.80
2019-02-24T22:33:11.820Z,2.80
2019-02-24T22:35:41.395Z,2.80
2019-02-24T22:38:11.025Z,2.70
2019-02-24T22:40:40.342Z,2.70
2019-02-24T22:43:09.736Z,2.70
2019-02-24T22:45:40.845Z,2.70
2019-02-24T22:48:09.901Z,2.70
2019-02-24T22:50:39.264Z,2.70
2019-02-24T22:53:08.723Z,2.70
2019-02-24T22:55:37.848Z,2.70
2019-02-24T22:58:07.109Z,2.60
2019-02-24T23:01:15.433Z,2.60
2019-02-24T23:03:46.814Z,2.60
2019-02-24T23:06:16.290Z,2.60
2019-02-24T23:08:45.919Z,2.50
2019-02-24T23:11:15.312Z,2.50
2019-02-24T23:13:44.313Z,2.50
2019-02-24T23:16:13.339Z,2.50
2019-02-24T23:18:45.828Z,2.40
2019-02-24T23:21:15.226Z,2.40
2019-02-24T23:23:44.459Z,2.30
2019-02-24T23:26:13.276Z,2.30
2019-02-24T23:28:43.016Z,2.20
2019-02-24T23:31:12.421Z,2.30
2019-02-24T23:33:41.900Z,2.30
2019-02-24T23:36:10.754Z,2.30
2019-02-24T23:38:40.410Z,2.30
2019-02-24T23:41:09.614Z,2.20
2019-02-24T23:43:38.710Z,2.20
2019-02-24T23:46:07.813Z,2.20
2019-02-24T23:48:37.175Z,2.20
2019-02-24T23:51:06.545Z,2.10
2019-02-24T23:53:35.871Z,2.10
2019-02-24T23:56:05.095Z,2.10
2019-02-24T23:58:34.268Z,2.10
